Suches, GA (30572)

6:28 AM EDT on August 30, 2016 (GMT -0400)
Toccoa Bend 2 | | Change Station

Elev 2005 ft 34.75 °N, 84.15 °W | Updated 57 seconds ago

Clear
Clear
60.3 °F
Feels Like 60.3 °F
N
0.0
Wind Variable Wind from East
Gusts 0.0 mph

Today
High -- | Low -- °F
--% Chance of Precip.
Yesterday
High -- | Low -- °F
Precip. -- in
Pressure 30.17 in
Visibility 5.0 miles
Clouds Clear
Dew Point 60 °F
Humidity 99%
Rainfall 0.00 in
Snow Depth Not available.
7:08 AM 8:04 PM
Waning Crescent, 4% visible
METAR KRHP 301020Z AUTO 00000KT 5SM BR CLR 15/15 A3017 RMK AO2 T01520152
Pressure 30.17 in
Visibility 5.0 miles
Clouds Clear
Dew Point 60 °F
Humidity 99%
Rainfall 0.00 in
Snow Depth Not available.
7:08 AM 8:04 PM
Waning Crescent, 4% visible
METAR KRHP 301020Z AUTO 00000KT 5SM BR CLR 15/15 A3017 RMK AO2 T01520152

10-Day Weather Forecast

Almanac

Astronomy

Aug. 30, 2016 Rise Set
Actual Time
Civil Twilight
Nautical Twilight
Astronomical Twilight
Moon
Length of Visible Light
Length of Day
Tomorrow will be .
, % of the Moon is Illuminated

Today's Extremes

State Highs State Lows

Community

WunderPhotos

Upload Photos

1,935,809 photos uploaded!

WunderBlog® & News

Nearby

Air Quality

  Air Quality AQ Index Pollutant
Not available.

Snow Depth

Station Depth Elevation

Earthquake Activity

City Distance Mag. Time & Date
Minimum magnitude displayed is 2.5.

Coastal Water Temperatures

Place Temperature

Stations

Nearby Weather Stations

Station Location Temp. Windchill Dew Point Humidity Wind Precip. Elev Updated Type
                   

Watches & Warnings

There are currently no watches in effect.